AAL2742 SACO-SAEZ
Flight info
| Callsign | AAL2742 |
|---|---|
| Flight time | N/A |
| Altitude | 39000 |
| Route | UTRAX1C UTRAX UW24 SNT SNT7X |
| Aircraft | B77W/H-SDE1E2E3FGHIJ2J3J4J5M1RWXY/LB1D1 |
Departure
| Time | 2026-04-28 23:05 |
|---|---|
| Airport | Ingeniero Aeronáutico Ambrosio L.V. Taravella International Airport (SACO) |
Arrival
| Time | N/A |
|---|---|
| Airport | Ezeiza International Airport - Ministro Pistarini (SAEZ) |
| Time | Latitude | Longitude | Altitude | Speed | Heading |
|---|---|---|---|---|---|
| 2026-04-28 22:52 | -31.31546 | -64.21178 | 1617 ft | 0 kts | 240° |
| 2026-04-28 22:58 | -31.31544 | -64.21175 | 1618 ft | 1 kts | 240° |
| 2026-04-28 22:59 | -31.31537 | -64.21160 | 1618 ft | 3 kts | 239° |
| 2026-04-28 22:59 | -31.31525 | -64.21141 | 1618 ft | 3 kts | 229° |
| 2026-04-28 22:59 | -31.31511 | -64.21125 | 1618 ft | 3 kts | 218° |
| 2026-04-28 22:59 | -31.31494 | -64.21112 | 1618 ft | 3 kts | 208° |
| 2026-04-28 23:00 | -31.31475 | -64.21102 | 1618 ft | 3 kts | 198° |
| 2026-04-28 23:00 | -31.31455 | -64.21096 | 1618 ft | 3 kts | 188° |
| 2026-04-28 23:00 | -31.31435 | -64.21095 | 1618 ft | 3 kts | 178° |
| 2026-04-28 23:00 | -31.31414 | -64.21097 | 1618 ft | 3 kts | 169° |
| 2026-04-28 23:01 | -31.31409 | -64.21098 | 1618 ft | 0 kts | 168° |
| 2026-04-28 23:01 | -31.31432 | -64.21096 | 1618 ft | 8 kts | 175° |
| 2026-04-28 23:01 | -31.31533 | -64.21087 | 1618 ft | 17 kts | 180° |
| 2026-04-28 23:02 | -31.31661 | -64.21101 | 1618 ft | 18 kts | 182° |
| 2026-04-28 23:02 | -31.31791 | -64.21052 | 1618 ft | 27 kts | 139° |
| 2026-04-28 23:02 | -31.31938 | -64.21006 | 1618 ft | 26 kts | 183° |
| 2026-04-28 23:02 | -31.32124 | -64.21018 | 1618 ft | 27 kts | 183° |
| 2026-04-28 23:03 | -31.32303 | -64.21024 | 1618 ft | 23 kts | 179° |
| 2026-04-28 23:03 | -31.32431 | -64.21008 | 1618 ft | 16 kts | 149° |
| 2026-04-28 23:03 | -31.32477 | -64.20927 | 1618 ft | 13 kts | 85° |
| 2026-04-28 23:03 | -31.32419 | -64.20833 | 1618 ft | 14 kts | 34° |
| 2026-04-28 23:04 | -31.32320 | -64.20823 | 1618 ft | 23 kts | 360° |
| 2026-04-28 23:04 | -31.31164 | -64.20801 | 1618 ft | 141 kts | 1° |
| 2026-04-28 23:04 | -31.30039 | -64.20776 | 1809 ft | 174 kts | 1° |
| 2026-04-28 23:05 | -31.28802 | -64.20633 | 2395 ft | 182 kts | 13° |
| 2026-04-28 23:05 | -31.27752 | -64.19883 | 3126 ft | 188 kts | 38° |
| 2026-04-28 23:05 | -31.26918 | -64.18616 | 3710 ft | 202 kts | 52° |
| 2026-04-28 23:05 | -31.26228 | -64.17146 | 4477 ft | 206 kts | 59° |
| 2026-04-28 23:06 | -31.25588 | -64.15622 | 5196 ft | 214 kts | 62° |
| 2026-04-28 23:06 | -31.24986 | -64.14011 | 5944 ft | 216 kts | 66° |
| 2026-04-28 23:06 | -31.24601 | -64.12356 | 6894 ft | 208 kts | 80° |
| 2026-04-28 23:06 | -31.24710 | -64.10692 | 7567 ft | 212 kts | 101° |
| 2026-04-28 23:07 | -31.25234 | -64.09009 | 8003 ft | 228 kts | 112° |
| 2026-04-28 23:07 | -31.26023 | -64.07357 | 8560 ft | 238 kts | 123° |
| 2026-04-28 23:07 | -31.27029 | -64.05809 | 9273 ft | 240 kts | 128° |
| 2026-04-28 23:07 | -31.28122 | -64.04267 | 9863 ft | 251 kts | 130° |
| 2026-04-28 23:08 | -31.29309 | -64.02726 | 10533 ft | 260 kts | 133° |
| 2026-04-28 23:08 | -31.30595 | -64.01206 | 11338 ft | 261 kts | 135° |
| 2026-04-28 23:08 | -31.31918 | -63.99762 | 12322 ft | 257 kts | 137° |
| 2026-04-28 23:08 | -31.33252 | -63.98310 | 13081 ft | 266 kts | 139° |
| 2026-04-28 23:09 | -31.34641 | -63.96786 | 13681 ft | 281 kts | 140° |
| 2026-04-28 23:09 | -31.36095 | -63.95186 | 14357 ft | 289 kts | 141° |
| 2026-04-28 23:09 | -31.37519 | -63.93591 | 15481 ft | 279 kts | 141° |
| 2026-04-28 23:09 | -31.38896 | -63.92067 | 16565 ft | 267 kts | 141° |
| 2026-04-28 23:10 | -31.40203 | -63.90607 | 17664 ft | 256 kts | 141° |
| 2026-04-28 23:10 | -31.41482 | -63.89160 | 18528 ft | 250 kts | 141° |
| 2026-04-28 23:10 | -31.42730 | -63.87697 | 19122 ft | 260 kts | 139° |
| 2026-04-28 23:10 | -31.44027 | -63.86179 | 19562 ft | 271 kts | 140° |
| 2026-04-28 23:11 | -31.45422 | -63.84593 | 19977 ft | 286 kts | 140° |
| 2026-04-28 23:11 | -31.46889 | -63.82941 | 20495 ft | 297 kts | 140° |
| 2026-04-28 23:11 | -31.48393 | -63.81267 | 21261 ft | 299 kts | 140° |
| 2026-04-28 23:11 | -31.49886 | -63.79605 | 22243 ft | 292 kts | 140° |
| 2026-04-28 23:12 | -31.51056 | -63.78297 | 23038 ft | 286 kts | 141° |
| 2026-04-28 23:12 | -31.52474 | -63.76710 | 24022 ft | 277 kts | 141° |
| 2026-04-28 23:12 | -31.53850 | -63.75168 | 25010 ft | 265 kts | 141° |
| 2026-04-28 23:12 | -31.55142 | -63.73718 | 25958 ft | 251 kts | 141° |
| 2026-04-28 23:13 | -31.56393 | -63.72313 | 26703 ft | 246 kts | 140° |
| 2026-04-28 23:13 | -31.57612 | -63.70945 | 27305 ft | 247 kts | 140° |
| 2026-04-28 23:13 | -31.58863 | -63.69540 | 27811 ft | 250 kts | 140° |
| 2026-04-28 23:13 | -31.60126 | -63.68122 | 28318 ft | 252 kts | 140° |
| 2026-04-28 23:14 | -31.61397 | -63.66695 | 28819 ft | 252 kts | 140° |
| 2026-04-28 23:14 | -31.62670 | -63.65266 | 29208 ft | 258 kts | 140° |
| 2026-04-28 23:14 | -31.63995 | -63.63803 | 29400 ft | 268 kts | 140° |
| 2026-04-28 23:14 | -31.65385 | -63.62269 | 29627 ft | 280 kts | 140° |
| 2026-04-28 23:15 | -31.66847 | -63.60666 | 29712 ft | 298 kts | 140° |
| 2026-04-28 23:15 | -31.68407 | -63.58946 | 29746 ft | 317 kts | 140° |
| 2026-04-28 23:15 | -31.70062 | -63.57116 | 29805 ft | 335 kts | 139° |
| 2026-04-28 23:15 | -31.71784 | -63.55206 | 30242 ft | 341 kts | 139° |
| 2026-04-28 23:16 | -31.73481 | -63.53323 | 31019 ft | 334 kts | 139° |
| 2026-04-28 23:16 | -31.75143 | -63.51475 | 32014 ft | 323 kts | 140° |
| 2026-04-28 23:16 | -31.76742 | -63.49697 | 33000 ft | 309 kts | 140° |
| 2026-04-28 23:16 | -31.78266 | -63.48001 | 33884 ft | 296 kts | 142° |
| 2026-04-28 23:17 | -31.79753 | -63.46344 | 34425 ft | 292 kts | 142° |
| 2026-04-28 23:17 | -31.80727 | -63.45259 | 34745 ft | 290 kts | 142° |
| 2026-04-28 23:17 | -31.82666 | -63.43100 | 35243 ft | 289 kts | 142° |
| 2026-04-28 23:17 | -31.84129 | -63.41469 | 35503 ft | 293 kts | 143° |
| 2026-04-28 23:18 | -31.85665 | -63.39758 | 35280 ft | 312 kts | 142° |
| 2026-04-28 23:18 | -31.86723 | -63.38580 | 35285 ft | 319 kts | 142° |
| 2026-04-28 23:18 | -31.88377 | -63.36732 | 35076 ft | 339 kts | 141° |
| 2026-04-28 23:18 | -31.90031 | -63.34621 | 34972 ft | 358 kts | 136° |
| 2026-04-28 23:19 | -31.91639 | -63.32311 | 35030 ft | 370 kts | 134° |
| 2026-04-28 23:19 | -31.93255 | -63.29891 | 35086 ft | 382 kts | 133° |
| 2026-04-28 23:19 | -31.94876 | -63.27391 | 35131 ft | 393 kts | 133° |
| 2026-04-28 23:19 | -31.96546 | -63.24776 | 35183 ft | 404 kts | 132° |
| 2026-04-28 23:20 | -32.00011 | -63.19341 | 35280 ft | 424 kts | 131° |
| 2026-04-28 23:20 | -32.03586 | -63.13726 | 35821 ft | 430 kts | 132° |
| 2026-04-28 23:21 | -32.05379 | -63.10909 | 36324 ft | 427 kts | 132° |
| 2026-04-28 23:21 | -32.07158 | -63.08112 | 36825 ft | 424 kts | 133° |
| 2026-04-28 23:21 | -32.08919 | -63.05341 | 37325 ft | 420 kts | 133° |
| 2026-04-28 23:21 | -32.10646 | -63.02622 | 37819 ft | 417 kts | 133° |
| 2026-04-28 23:22 | -32.12374 | -62.99899 | 38319 ft | 412 kts | 134° |
| 2026-04-28 23:22 | -32.14091 | -62.97192 | 38801 ft | 409 kts | 134° |
| 2026-04-28 23:22 | -32.15802 | -62.94493 | 38952 ft | 413 kts | 134° |
| 2026-04-28 23:22 | -32.17517 | -62.91785 | 38983 ft | 418 kts | 134° |
| 2026-04-28 23:23 | -32.21041 | -62.86214 | 38989 ft | 429 kts | 134° |
| 2026-04-28 23:23 | -32.24655 | -62.80492 | 38990 ft | 438 kts | 134° |
| 2026-04-28 23:24 | -32.28330 | -62.74667 | 38992 ft | 444 kts | 134° |
| 2026-04-28 23:24 | -32.32018 | -62.68810 | 38992 ft | 447 kts | 133° |
| 2026-04-28 23:25 | -32.35728 | -62.62909 | 38971 ft | 442 kts | 133° |
| 2026-04-28 23:25 | -32.39384 | -62.57086 | 38967 ft | 439 kts | 133° |
| 2026-04-28 23:26 | -32.43013 | -62.51297 | 38966 ft | 440 kts | 133° |
| 2026-04-28 23:26 | -32.46680 | -62.45438 | 38967 ft | 442 kts | 133° |
| 2026-04-28 23:27 | -32.50319 | -62.39615 | 38967 ft | 442 kts | 133° |
| 2026-04-28 23:27 | -32.53985 | -62.33740 | 38970 ft | 443 kts | 133° |
| 2026-04-28 23:28 | -32.57640 | -62.27873 | 38965 ft | 440 kts | 133° |
| 2026-04-28 23:28 | -32.61270 | -62.22037 | 38964 ft | 439 kts | 133° |
| 2026-04-28 23:29 | -32.64876 | -62.16231 | 38966 ft | 440 kts | 132° |
| 2026-04-28 23:29 | -32.68508 | -62.10374 | 38965 ft | 440 kts | 132° |
| 2026-04-28 23:30 | -32.72140 | -62.04507 | 38967 ft | 441 kts | 132° |
| 2026-04-28 23:30 | -32.75750 | -61.98667 | 38967 ft | 440 kts | 132° |
| 2026-04-28 23:31 | -32.79393 | -61.92765 | 38966 ft | 440 kts | 133° |
| 2026-04-28 23:31 | -32.83003 | -61.86908 | 38966 ft | 442 kts | 133° |
| 2026-04-28 23:32 | -32.86646 | -61.80986 | 38971 ft | 443 kts | 133° |
| 2026-04-28 23:32 | -32.90301 | -61.75038 | 38976 ft | 446 kts | 133° |
| 2026-04-28 23:33 | -32.93935 | -61.69112 | 38975 ft | 445 kts | 132° |
| 2026-04-28 23:33 | -32.97568 | -61.63181 | 38972 ft | 441 kts | 132° |
| 2026-04-28 23:34 | -33.01195 | -61.57249 | 38981 ft | 443 kts | 132° |
| 2026-04-28 23:34 | -33.04833 | -61.51291 | 38981 ft | 445 kts | 132° |
| 2026-04-28 23:35 | -33.08457 | -61.45344 | 38985 ft | 445 kts | 132° |
| 2026-04-28 23:35 | -33.12127 | -61.39404 | 38988 ft | 445 kts | 133° |
| 2026-04-28 23:36 | -33.15771 | -61.33454 | 38967 ft | 441 kts | 132° |
| 2026-04-28 23:36 | -33.19368 | -61.27529 | 38967 ft | 440 kts | 132° |
| 2026-04-28 23:37 | -33.22944 | -61.21629 | 38966 ft | 442 kts | 131° |
| 2026-04-28 23:37 | -33.26586 | -61.15627 | 38967 ft | 446 kts | 132° |
| 2026-04-28 23:38 | -33.30195 | -61.09592 | 38967 ft | 449 kts | 131° |
| 2026-04-28 23:38 | -33.33660 | -61.03383 | 38967 ft | 447 kts | 131° |
| 2026-04-28 23:39 | -33.37130 | -60.97228 | 38967 ft | 444 kts | 131° |
| 2026-04-28 23:39 | -33.40557 | -60.91123 | 38968 ft | 445 kts | 131° |
| 2026-04-28 23:40 | -33.44010 | -60.84952 | 38968 ft | 446 kts | 130° |
| 2026-04-28 23:40 | -33.47449 | -60.78795 | 38629 ft | 437 kts | 130° |
| 2026-04-28 23:41 | -33.49114 | -60.75810 | 38067 ft | 435 kts | 130° |
| 2026-04-28 23:41 | -33.50799 | -60.72787 | 37390 ft | 437 kts | 130° |
| 2026-04-28 23:41 | -33.52483 | -60.69763 | 36920 ft | 435 kts | 129° |
| 2026-04-28 23:41 | -33.54161 | -60.66748 | 36340 ft | 434 kts | 129° |
| 2026-04-28 23:42 | -33.55843 | -60.63738 | 35853 ft | 431 kts | 129° |
| 2026-04-28 23:42 | -33.57521 | -60.60766 | 35358 ft | 429 kts | 129° |
| 2026-04-28 23:42 | -33.59188 | -60.57795 | 34871 ft | 428 kts | 129° |
| 2026-04-28 23:42 | -33.60835 | -60.54848 | 34375 ft | 428 kts | 129° |
| 2026-04-28 23:43 | -33.62485 | -60.51886 | 33977 ft | 425 kts | 128° |
| 2026-04-28 23:43 | -33.64121 | -60.48944 | 33544 ft | 423 kts | 128° |
| 2026-04-28 23:43 | -33.65734 | -60.46040 | 33103 ft | 421 kts | 128° |
| 2026-04-28 23:43 | -33.67363 | -60.43134 | 32670 ft | 419 kts | 128° |
| 2026-04-28 23:44 | -33.68989 | -60.40225 | 32241 ft | 417 kts | 128° |
| 2026-04-28 23:44 | -33.70595 | -60.37331 | 31816 ft | 415 kts | 128° |
| 2026-04-28 23:44 | -33.72187 | -60.34449 | 31426 ft | 412 kts | 128° |
| 2026-04-28 23:44 | -33.73767 | -60.31583 | 31009 ft | 410 kts | 127° |
| 2026-04-28 23:45 | -33.75323 | -60.28757 | 30590 ft | 408 kts | 127° |
| 2026-04-28 23:45 | -33.76884 | -60.25920 | 30111 ft | 407 kts | 128° |
| 2026-04-28 23:45 | -33.78456 | -60.23061 | 29639 ft | 407 kts | 128° |
| 2026-04-28 23:45 | -33.79996 | -60.20259 | 29212 ft | 405 kts | 128° |
| 2026-04-28 23:46 | -33.81548 | -60.17436 | 28767 ft | 403 kts | 128° |
| 2026-04-28 23:46 | -33.83096 | -60.14622 | 28322 ft | 401 kts | 128° |
| 2026-04-28 23:46 | -33.84634 | -60.11827 | 27881 ft | 400 kts | 128° |
| 2026-04-28 23:46 | -33.86185 | -60.09057 | 27445 ft | 398 kts | 129° |
| 2026-04-28 23:47 | -33.87731 | -60.06296 | 27002 ft | 396 kts | 129° |
| 2026-04-28 23:47 | -33.89269 | -60.03545 | 26564 ft | 395 kts | 129° |
| 2026-04-28 23:47 | -33.90784 | -60.00828 | 26115 ft | 394 kts | 129° |
| 2026-04-28 23:47 | -33.92299 | -59.98108 | 25805 ft | 390 kts | 129° |
| 2026-04-28 23:48 | -33.93807 | -59.95400 | 25492 ft | 388 kts | 129° |
| 2026-04-28 23:48 | -33.95304 | -59.92708 | 25182 ft | 386 kts | 129° |
| 2026-04-28 23:48 | -33.96794 | -59.90027 | 24876 ft | 385 kts | 129° |
| 2026-04-28 23:48 | -33.98287 | -59.87337 | 24566 ft | 386 kts | 129° |
| 2026-04-28 23:49 | -33.99782 | -59.84643 | 24259 ft | 387 kts | 128° |
| 2026-04-28 23:49 | -34.01276 | -59.81949 | 23950 ft | 386 kts | 128° |
| 2026-04-28 23:49 | -34.02770 | -59.79255 | 23641 ft | 384 kts | 128° |
| 2026-04-28 23:49 | -34.04246 | -59.76620 | 23339 ft | 382 kts | 129° |
| 2026-04-28 23:50 | -34.05748 | -59.73979 | 23032 ft | 380 kts | 129° |
| 2026-04-28 23:50 | -34.07542 | -59.70783 | 22666 ft | 378 kts | 128° |
| 2026-04-28 23:50 | -34.13340 | -59.60319 | 21464 ft | 371 kts | 128° |
| 2026-04-28 23:50 | -34.19021 | -59.49961 | 20283 ft | 366 kts | 127° |
| 2026-04-28 23:51 | -34.22780 | -59.42434 | 19441 ft | 362 kts | 120° |
| 2026-04-28 23:51 | -34.23636 | -59.39534 | 19154 ft | 364 kts | 107° |